Time;durP1;ratioP1;P1;durP2;ratioP2;P2;SDS_P1;SDS_P2;PMS_P1;PMS_P2;Temp;Humidity;BMP_temperature;BMP_pressure;BME280_temperature;BME280_humidity;BME280_pressure;Samples;Min_cycle;Max_cycle;Signal;HPM_P1;HPM_P2
2022/02/23 00:00:50;;;;;;;43.78;8.30;;;24.20;48.10;;;;;;5031691;28;20028;-29
2022/02/23 00:03:16;;;;;;;28.75;6.78;;;23.60;46.80;;;;;;5039843;28;20021;-28
2022/02/23 00:05:43;;;;;;;26.08;7.32;;;23.50;58.60;;;;;;5040931;28;20476;-30
2022/02/23 00:08:09;;;;;;;28.85;6.88;;;23.90;42.70;;;;;;5039923;28;20032;-32
2022/02/23 00:10:35;;;;;;;35.17;7.13;;;23.90;42.20;;;;;;5025121;28;20022;-35
2022/02/23 00:13:02;;;;;;;29.92;6.00;;;;;;;;;;5013030;28;20041;-29
2022/02/23 00:15:28;;;;;;;28.02;5.47;;;;;;;;;;5039020;28;20021;-30
2022/02/23 00:17:55;;;;;;;26.75;6.00;;;23.50;58.00;;;;;;5057629;28;20083;-30
2022/02/23 00:20:22;;;;;;;25.13;6.25;;;23.70;42.10;;;;;;5028228;28;20048;-37
2022/02/23 00:22:49;;;;;;;20.25;5.80;;;23.80;42.30;;;;;;5028672;28;20104;-36
2022/02/23 00:25:16;;;;;;;22.25;5.43;;;23.80;43.40;;;;;;5014232;28;20111;-28
2022/02/23 00:27:43;;;;;;;22.50;5.35;;;23.80;42.60;;;;;;5012985;28;20080;-43
2022/02/23 00:30:10;;;;;;;16.02;4.80;;;23.80;42.00;;;;;;5029627;28;20073;-28
2022/02/23 00:32:38;;;;;;;20.67;4.53;;;23.80;42.10;;;;;;5022616;28;20101;-33
2022/02/23 00:35:13;;;;;;;;;;;23.80;42.90;;;;;;5029520;28;20100;-32
2022/02/23 00:37:39;;;;;;;10.48;3.70;;;23.80;42.40;;;;;;5031376;28;19984;-39
2022/02/23 00:40:06;;;;;;;12.32;4.47;;;23.80;42.10;;;;;;5011907;28;20606;-28
2022/02/23 00:42:32;;;;;;;19.17;4.45;;;23.80;42.50;;;;;;5011936;28;20093;-40
2022/02/23 00:44:59;;;;;;;17.02;4.90;;;23.80;43.00;;;;;;5018314;28;20138;-30
2022/02/23 00:47:25;;;;;;;11.63;3.40;;;23.90;44.00;;;;;;5014270;28;20527;-30
2022/02/23 00:49:52;;;;;;;24.83;3.90;;;23.90;42.90;;;;;;5016773;28;20147;-31
2022/02/23 00:52:18;;;;;;;18.52;4.22;;;23.90;43.30;;;;;;5014130;28;20228;-39
2022/02/23 00:54:44;;;;;;;42.25;3.30;;;23.90;43.40;;;;;;5014239;28;20568;-32
2022/02/23 00:57:13;;;;;;;16.95;1.85;;;23.80;39.60;;;;;;4997318;28;20078;-31
2022/02/23 00:59:40;;;;;;;30.35;2.50;;;23.30;37.50;;;;;;4997847;28;20585;-28
2022/02/23 01:02:06;;;;;;;18.20;1.83;;;23.10;38.30;;;;;;5014075;28;20085;-30
2022/02/23 01:04:33;;;;;;;7.80;1.40;;;22.90;38.50;;;;;;5014469;28;20073;-32
2022/02/23 01:06:59;;;;;;;31.13;1.75;;;22.70;38.40;;;;;;5023862;28;20073;-36
2022/02/23 01:09:26;;;;;;;48.30;2.72;;;22.60;39.00;;;;;;5023521;28;20516;-31
2022/02/23 01:11:53;;;;;;;22.27;1.88;;;22.70;41.10;;;;;;5025205;28;20596;-39
2022/02/23 01:14:19;;;;;;;27.58;2.53;;;23.00;41.40;;;;;;5005620;28;20071;-42
2022/02/23 01:16:45;;;;;;;27.02;3.30;;;23.20;41.40;;;;;;5025144;28;20073;-30
2022/02/23 01:19:13;;;;;;;15.75;2.03;;;23.30;41.00;;;;;;5024367;28;20092;-32
2022/02/23 01:21:39;;;;;;;16.05;2.15;;;23.30;41.10;;;;;;5024784;28;20073;-35
2022/02/23 01:24:06;;;;;;;15.32;2.20;;;23.30;40.80;;;;;;5026255;28;20226;-32
2022/02/23 01:26:32;;;;;;;9.32;2.05;;;23.40;40.90;;;;;;5010267;28;20081;-32
2022/02/23 01:28:59;;;;;;;16.52;2.35;;;23.50;41.20;;;;;;5024682;28;20443;-28
2022/02/23 01:31:25;;;;;;;21.52;2.42;;;23.60;41.00;;;;;;5028247;28;20419;-37
2022/02/23 01:33:52;;;;;;;14.20;1.95;;;23.50;41.10;;;;;;5009048;28;20104;-32
2022/02/23 01:36:18;;;;;;;30.63;2.88;;;23.60;41.00;;;;;;5025402;28;20154;-30
2022/02/23 01:38:45;;;;;;;11.88;1.85;;;23.70;41.10;;;;;;5022781;28;20084;-31
2022/02/23 01:41:13;;;;;;;10.32;1.73;;;23.60;41.10;;;;;;5024731;28;20392;-28
2022/02/23 01:43:40;;;;;;;14.63;2.53;;;23.70;41.20;;;;;;5027309;28;20080;-31
2022/02/23 01:46:06;;;;;;;10.05;1.92;;;23.70;41.30;;;;;;5026768;28;20123;-39
2022/02/23 01:48:32;;;;;;;14.60;2.45;;;23.80;41.50;;;;;;5026506;28;20891;-32
2022/02/23 01:50:59;;;;;;;67.05;3.40;;;23.80;41.40;;;;;;5024955;28;20080;-29
2022/02/23 01:53:25;;;;;;;21.40;1.98;;;23.80;41.70;;;;;;5008922;28;20128;-39
2022/02/23 01:55:52;;;;;;;18.08;2.70;;;23.80;42.10;;;;;;4996066;28;20263;-33
2022/02/23 01:58:18;;;;;;;19.45;2.17;;;23.90;41.90;;;;;;5024753;28;20069;-38
2022/02/23 02:00:44;;;;;;;20.25;2.03;;;23.90;41.40;;;;;;5018372;28;20087;-38
2022/02/23 02:03:11;;;;;;;17.45;1.88;;;23.90;39.10;;;;;;4989383;28;20164;-41
2022/02/23 02:05:37;;;;;;;28.83;2.20;;;23.80;37.80;;;;;;5026172;28;20127;-41
2022/02/23 02:08:04;;;;;;;21.55;2.13;;;23.80;38.50;;;;;;5025132;28;20105;-38
2022/02/23 02:10:31;;;;;;;10.93;1.95;;;23.80;38.80;;;;;;5025412;28;20585;-39
2022/02/23 02:12:57;;;;;;;15.00;2.00;;;23.70;38.80;;;;;;5022434;28;20089;-37
2022/02/23 02:15:23;;;;;;;17.95;2.20;;;23.60;39.70;;;;;;5024323;28;20077;-33
2022/02/23 02:17:50;;;;;;;24.67;1.92;;;23.60;41.00;;;;;;5029026;28;20519;-37
2022/02/23 02:20:16;;;;;;;13.90;1.65;;;23.70;41.40;;;;;;5026590;28;20073;-37
2022/02/23 02:22:43;;;;;;;29.67;2.67;;;23.80;41.20;;;;;;5025224;28;20076;-42
2022/02/23 02:25:09;;;;;;;17.33;1.80;;;23.90;41.20;;;;;;5026735;28;20450;-38
2022/02/23 02:27:35;;;;;;;10.40;1.85;;;23.90;41.20;;;;;;5011230;28;20127;-39
2022/02/23 02:30:03;;;;;;;12.25;1.67;;;23.90;41.20;;;;;;4993249;28;20516;-39
2022/02/23 02:32:30;;;;;;;14.13;1.70;;;23.80;40.60;;;;;;5023554;28;20093;-45
2022/02/23 02:34:57;;;;;;;16.63;1.65;;;23.80;41.00;;;;;;5021529;28;20490;-39
2022/02/23 02:37:24;;;;;;;14.20;1.98;;;23.80;40.80;;;;;;5023472;28;20674;-38
2022/02/23 02:39:50;;;;;;;29.67;1.83;;;23.80;40.90;;;;;;5024762;28;20122;-37
2022/02/23 02:42:18;;;;;;;14.50;2.08;;;23.80;40.90;;;;;;5024324;28;20069;-34
2022/02/23 02:44:45;;;;;;;13.15;1.58;;;23.90;40.70;;;;;;5023732;28;20088;-35
2022/02/23 02:47:12;;;;;;;7.50;1.40;;;23.90;40.90;;;;;;5025457;28;20499;-39
2022/02/23 02:49:39;;;;;;;11.98;1.50;;;23.90;41.20;;;;;;5007669;28;20086;-37
2022/02/23 02:52:06;;;;;;;13.02;1.40;;;24.00;41.90;;;;;;5026226;28;20086;-38
2022/02/23 02:54:33;;;;;;;9.25;1.45;;;24.00;41.60;;;;;;5009434;28;20066;-40
2022/02/23 02:57:00;;;;;;;8.20;1.20;;;24.00;41.20;;;;;;5024440;28;20485;-41
2022/02/23 02:59:26;;;;;;;7.10;1.90;;;24.00;41.50;;;;;;5028363;28;20435;-37
2022/02/23 03:01:53;;;;;;;6.05;1.75;;;24.00;41.30;;;;;;5026205;28;20079;-33
2022/02/23 03:04:19;;;;;;;7.20;1.73;;;24.10;40.60;;;;;;5007220;28;20093;-37
2022/02/23 03:06:45;;;;;;;7.10;1.55;;;24.10;41.40;;;;;;5024041;28;20171;-35
2022/02/23 03:09:12;;;;;;;8.80;1.40;;;24.10;41.30;;;;;;5008386;28;20074;-37
2022/02/23 03:11:38;;;;;;;6.43;1.10;;;24.10;41.30;;;;;;5023757;28;20077;-41
2022/02/23 03:14:05;;;;;;;5.18;1.30;;;24.10;41.20;;;;;;5023148;28;20577;-36
2022/02/23 03:16:31;;;;;;;4.80;1.40;;;24.10;41.50;;;;;;5023478;28;20076;-32
2022/02/23 03:18:58;;;;;;;4.20;1.48;;;24.10;41.50;;;;;;5024045;28;20163;-47
2022/02/23 03:21:24;;;;;;;3.85;1.25;;;24.10;41.70;;;;;;5022588;28;20177;-31
2022/02/23 03:23:51;;;;;;;4.38;1.13;;;24.10;41.70;;;;;;5024367;28;20156;-29
2022/02/23 03:26:18;;;;;;;5.55;1.13;;;24.10;41.20;;;;;;5023229;28;20072;-37
2022/02/23 03:28:44;;;;;;;5.65;1.17;;;24.10;41.10;;;;;;5024840;28;20187;-37
2022/02/23 03:31:11;;;;;;;5.78;1.15;;;24.10;41.30;;;;;;5023729;28;20446;-36
2022/02/23 03:33:46;;;;;;;3.90;1.27;;;24.10;41.40;;;;;;5022505;28;20089;-33
2022/02/23 03:36:16;;;;;;;5.53;1.50;;;24.10;41.40;;;;;;5026569;28;20095;-36
2022/02/23 03:38:44;;;;;;;6.45;1.27;;;24.00;41.60;;;;;;5008108;28;20091;-33
2022/02/23 03:41:11;;;;;;;4.43;1.17;;;24.00;41.30;;;;;;5008419;28;20069;-31
2022/02/23 03:43:38;;;;;;;4.75;1.50;;;24.10;41.50;;;;;;5024259;28;20074;-42
2022/02/23 03:46:05;;;;;;;7.53;1.27;;;24.00;41.50;;;;;;5022911;28;20096;-37
2022/02/23 03:48:32;;;;;;;7.32;1.52;;;24.10;41.40;;;;;;5023759;28;20450;-35
2022/02/23 03:50:58;;;;;;;17.85;2.30;;;24.10;41.20;;;;;;5024108;28;20074;-35
2022/02/23 03:53:24;;;;;;;7.63;1.30;;;24.10;41.30;;;;;;5023688;28;20184;-39
2022/02/23 03:55:51;;;;;;;10.70;1.45;;;24.00;41.10;;;;;;5026720;28;20414;-38
2022/02/23 03:58:17;;;;;;;11.70;1.92;;;24.00;41.20;;;;;;5022392;28;20072;-39
2022/02/23 04:00:44;;;;;;;6.90;1.70;;;23.90;41.20;;;;;;5006433;28;20098;-38
2022/02/23 04:03:10;;;;;;;11.65;1.60;;;23.80;41.30;;;;;;5021851;28;20164;-39
2022/02/23 04:05:37;;;;;;;4.50;1.48;;;23.80;41.00;;;;;;5021367;28;20144;-38
2022/02/23 04:08:03;;;;;;;5.70;1.50;;;23.80;41.00;;;;;;5024215;28;20095;-41
2022/02/23 04:10:30;;;;;;;4.68;1.35;;;23.80;40.90;;;;;;5008651;28;20074;-37
2022/02/23 04:12:56;;;;;;;8.50;1.58;;;23.80;41.10;;;;;;5024438;28;20094;-39
2022/02/23 04:15:22;;;;;;;7.43;1.50;;;23.80;41.10;;;;;;5023247;28;20105;-43
2022/02/23 04:17:49;;;;;;;5.80;1.17;;;23.70;40.80;;;;;;5039191;28;20076;-36
2022/02/23 04:20:15;;;;;;;6.85;1.67;;;23.70;41.00;;;;;;5029385;28;20072;-35
2022/02/23 04:22:43;;;;;;;12.70;1.77;;;23.70;40.80;;;;;;5028054;28;20524;-38
2022/02/23 04:25:11;;;;;;;3.97;1.33;;;23.70;40.90;;;;;;5027517;28;20704;-39
2022/02/23 04:27:38;;;;;;;7.60;1.27;;;23.70;40.90;;;;;;5028158;28;20077;-39
2022/02/23 04:30:06;;;;;;;4.90;1.63;;;23.70;41.00;;;;;;5028831;28;20136;-33
2022/02/23 04:32:34;;;;;;;6.22;1.42;;;23.60;40.80;;;;;;5024418;28;20098;-35
2022/02/23 04:35:00;;;;;;;3.80;1.65;;;23.70;40.90;;;;;;5026940;28;20487;-38
2022/02/23 04:37:29;;;;;;;4.65;1.33;;;23.60;40.90;;;;;;5027104;28;20167;-36
2022/02/23 04:39:58;;;;;;;5.25;1.70;;;23.60;41.60;;;;;;5010489;28;20087;-39
2022/02/23 04:42:24;;;;;;;6.72;1.45;;;23.60;40.90;;;;;;5029040;28;20106;-38
2022/02/23 04:44:51;;;;;;;7.88;2.00;;;23.60;41.00;;;;;;5010429;28;20193;-38
2022/02/23 04:47:17;;;;;;;6.60;1.75;;;23.60;40.90;;;;;;5012116;28;20085;-34
2022/02/23 04:49:43;;;;;;;8.02;2.00;;;23.60;41.30;;;;;;5027671;28;20433;-38
2022/02/23 04:52:10;;;;;;;7.70;2.35;;;23.60;40.80;;;;;;5027470;28;20082;-42
2022/02/23 04:54:37;;;;;;;6.32;2.15;;;23.60;40.90;;;;;;5009923;28;20127;-39
2022/02/23 04:57:04;;;;;;;6.57;1.95;;;23.60;40.80;;;;;;5027461;28;20109;-41
2022/02/23 04:59:30;;;;;;;5.93;1.80;;;23.50;41.00;;;;;;5025107;28;20104;-34
2022/02/23 05:01:57;;;;;;;3.70;1.92;;;23.60;40.90;;;;;;5027114;28;20079;-40
2022/02/23 05:04:23;;;;;;;5.53;2.10;;;23.50;40.80;;;;;;5023448;28;20128;-44
2022/02/23 05:06:50;;;;;;;8.05;2.58;;;23.50;40.80;;;;;;5027981;28;20108;-38
2022/02/23 05:09:16;;;;;;;7.10;2.30;;;23.50;41.40;;;;;;4995131;28;20076;-39
2022/02/23 05:11:43;;;;;;;6.32;2.42;;;23.50;40.70;;;;;;5026723;28;20092;-36
2022/02/23 05:14:09;;;;;;;8.48;2.17;;;23.50;40.70;;;;;;5025073;28;20078;-35
2022/02/23 05:16:36;;;;;;;9.73;2.60;;;23.50;40.70;;;;;;5024233;28;20076;-36
2022/02/23 05:19:02;;;;;;;6.78;2.55;;;23.50;41.00;;;;;;5007478;28;20469;-38
2022/02/23 05:21:28;;;;;;;8.55;2.72;;;23.50;40.90;;;;;;5025066;28;20121;-35
2022/02/23 05:23:55;;;;;;;7.15;2.90;;;23.50;40.80;;;;;;5026089;28;20078;-37
2022/02/23 05:26:21;;;;;;;8.90;3.03;;;23.50;40.80;;;;;;5025897;28;20089;-36
2022/02/23 05:28:48;;;;;;;13.00;2.92;;;23.50;40.90;;;;;;5027342;28;20085;-42
2022/02/23 05:31:14;;;;;;;10.20;2.97;;;23.50;40.90;;;;;;5025154;28;20082;-34
2022/02/23 05:33:40;;;;;;;18.75;3.03;;;23.50;40.80;;;;;;5022256;28;20097;-37
2022/02/23 05:36:07;;;;;;;18.85;3.40;;;23.50;40.80;;;;;;5007684;28;20571;-41
2022/02/23 05:38:33;;;;;;;20.27;4.18;;;23.50;41.00;;;;;;5007161;28;20138;-36
2022/02/23 05:41:03;;;;;;;15.48;3.42;;;23.50;41.00;;;;;;5006767;28;20133;-38
2022/02/23 05:43:29;;;;;;;14.63;3.53;;;23.50;40.90;;;;;;5025144;28;20073;-36
2022/02/23 05:45:56;;;;;;;28.77;4.38;;;23.50;40.80;;;;;;5024446;28;20093;-39
2022/02/23 05:48:22;;;;;;;20.23;3.88;;;23.50;40.70;;;;;;5019636;28;20084;-39
2022/02/23 05:50:49;;;;;;;18.05;3.75;;;23.50;40.80;;;;;;5018571;28;20089;-39
2022/02/23 05:53:15;;;;;;;15.85;3.90;;;23.50;40.70;;;;;;5022449;28;20098;-38
2022/02/23 05:55:42;;;;;;;18.48;3.80;;;23.50;40.70;;;;;;5028487;28;20074;-36
2022/02/23 05:58:08;;;;;;;21.95;4.15;;;23.50;40.60;;;;;;5023339;28;20082;-39
2022/02/23 06:00:35;;;;;;;15.85;3.80;;;23.40;40.40;;;;;;5025032;28;20070;-45
2022/02/23 06:03:01;;;;;;;25.85;4.03;;;23.40;40.60;;;;;;5023642;28;20122;-41
2022/02/23 06:05:27;;;;;;;20.95;3.88;;;23.40;42.10;;;;;;5008842;28;20109;-41
2022/02/23 06:07:57;;;;;;;17.58;3.92;;;23.50;41.80;;;;;;5007213;28;20169;-44
2022/02/23 06:10:25;;;;;;;15.25;3.63;;;23.50;42.10;;;;;;5024736;28;20078;-38
2022/02/23 06:12:52;;;;;;;14.88;3.40;;;23.60;43.10;;;;;;5024623;28;20130;-35
2022/02/23 06:15:19;;;;;;;17.30;4.55;;;23.60;42.90;;;;;;5023450;28;20074;-37
2022/02/23 06:17:45;;;;;;;13.43;3.45;;;23.60;43.60;;;;;;5025056;28;20429;-35
2022/02/23 06:20:12;;;;;;;13.75;3.97;;;23.60;43.40;;;;;;5024206;28;20093;-39
2022/02/23 06:22:38;;;;;;;13.95;4.30;;;23.60;42.70;;;;;;5008272;28;20077;-37
2022/02/23 06:25:05;;;;;;;10.52;3.97;;;23.60;43.30;;;;;;5024143;28;20553;-42
2022/02/23 06:27:31;;;;;;;14.23;3.92;;;23.60;43.30;;;;;;5023284;28;20084;-36
2022/02/23 06:29:58;;;;;;;10.80;4.22;;;23.60;43.80;;;;;;5007146;28;20124;-37
2022/02/23 06:32:24;;;;;;;12.10;4.18;;;23.60;43.60;;;;;;5022771;28;20090;-35
2022/02/23 06:34:50;;;;;;;11.95;3.50;;;23.60;43.90;;;;;;5022314;28;20437;-36
2022/02/23 06:37:17;;;;;;;12.32;3.40;;;23.60;42.70;;;;;;5024664;28;20115;-33
2022/02/23 06:39:43;;;;;;;9.88;3.15;;;23.60;42.60;;;;;;5022782;28;20542;-35
2022/02/23 06:42:11;;;;;;;12.40;3.50;;;23.50;42.80;;;;;;5022226;28;20066;-39
2022/02/23 06:44:38;;;;;;;17.83;4.00;;;23.50;42.00;;;;;;5007889;28;20127;-31
2022/02/23 06:47:04;;;;;;;20.77;4.20;;;23.50;42.20;;;;;;5007599;28;20528;-36
2022/02/23 06:49:31;;;;;;;14.13;3.67;;;23.50;43.00;;;;;;5021979;28;20080;-35
2022/02/23 06:52:00;;;;;;;16.48;3.95;;;23.40;42.50;;;;;;5006651;28;20131;-36
2022/02/23 06:54:28;;;;;;;14.30;3.80;;;23.40;42.10;;;;;;5019904;28;20450;-34
2022/02/23 06:56:55;;;;;;;15.68;3.30;;;23.40;41.30;;;;;;5021663;28;20454;-35
2022/02/23 06:59:22;;;;;;;11.23;3.60;;;23.40;41.10;;;;;;5007329;28;20433;-34
2022/02/23 07:01:48;;;;;;;13.85;3.40;;;23.40;41.10;;;;;;5008434;28;20445;-34
2022/02/23 07:04:15;;;;;;;11.57;3.30;;;23.50;41.50;;;;;;5022378;28;20614;-35
2022/02/23 07:06:43;;;;;;;14.77;3.72;;;23.50;41.90;;;;;;5025071;28;20072;-33
2022/02/23 07:09:09;;;;;;;10.65;3.50;;;23.50;42.30;;;;;;5024309;28;20082;-36
2022/02/23 07:11:37;;;;;;;7.22;3.42;;;23.50;42.80;;;;;;5022307;28;20113;-33
2022/02/23 07:14:05;;;;;;;10.23;3.78;;;23.50;43.70;;;;;;5022835;28;20093;-44
2022/02/23 07:16:31;;;;;;;9.43;4.00;;;23.60;44.50;;;;;;5006057;28;20107;-34
2022/02/23 07:18:58;;;;;;;9.57;3.80;;;23.60;45.10;;;;;;5023564;28;20082;-43
2022/02/23 07:21:24;;;;;;;11.35;4.20;;;23.60;45.80;;;;;;4991040;28;20104;-35
2022/02/23 07:23:51;;;;;;;9.57;3.65;;;23.60;46.40;;;;;;5009974;28;21099;-37
2022/02/23 07:26:18;;;;;;;8.60;4.13;;;23.60;47.10;;;;;;5025701;28;20555;-34
2022/02/23 07:28:45;;;;;;;11.70;3.92;;;23.60;47.70;;;;;;5021383;28;20086;-34
2022/02/23 07:31:17;;;;;;;7.78;3.78;;;23.60;48.60;;;;;;5022471;28;20086;-36
2022/02/23 07:33:45;;;;;;;7.88;3.65;;;23.60;49.10;;;;;;5007056;28;20094;-34
2022/02/23 07:36:13;;;;;;;6.97;3.60;;;23.60;49.30;;;;;;5024637;28;20562;-39
2022/02/23 07:38:40;;;;;;;7.70;3.45;;;23.70;50.00;;;;;;5006273;28;20077;-37
2022/02/23 07:41:10;;;;;;;6.93;3.13;;;23.70;50.60;;;;;;4990716;28;20112;-41
2022/02/23 07:43:37;;;;;;;9.88;3.15;;;23.60;50.70;;;;;;5023148;28;20190;-38
2022/02/23 07:46:05;;;;;;;5.85;3.13;;;23.70;51.10;;;;;;5021872;28;20070;-34
2022/02/23 07:48:32;;;;;;;8.52;3.10;;;23.60;51.10;;;;;;5022999;28;20161;-35
2022/02/23 07:50:59;;;;;;;7.20;3.58;;;23.60;51.60;;;;;;5023827;28;20180;-36
2022/02/23 07:53:26;;;;;;;5.97;3.20;;;23.60;52.00;;;;;;5021597;28;20094;-37
2022/02/23 07:55:52;;;;;;;6.60;3.10;;;23.60;52.00;;;;;;5025801;28;20596;-37
2022/02/23 07:58:18;;;;;;;5.05;2.83;;;23.60;52.60;;;;;;5007912;28;20167;-35
2022/02/23 08:00:45;;;;;;;7.70;2.78;;;23.60;52.70;;;;;;5028570;28;20171;-38
2022/02/23 08:03:11;;;;;;;4.60;3.13;;;23.60;52.70;;;;;;5007985;28;20442;-36
2022/02/23 08:05:38;;;;;;;5.32;3.20;;;23.60;53.20;;;;;;5026209;28;20101;-35
2022/02/23 08:08:04;;;;;;;4.28;2.83;;;23.60;53.40;;;;;;4991501;28;20077;-36
2022/02/23 08:10:31;;;;;;;7.20;3.15;;;23.60;53.50;;;;;;5025617;28;20108;-40
2022/02/23 08:12:58;;;;;;;6.15;2.80;;;23.60;53.70;;;;;;5029656;28;20109;-38
2022/02/23 08:20:57;;;;;;;4.57;2.53;;;23.60;54.30;;;;;;5026227;28;20076;-35
2022/02/23 08:23:23;;;;;;;5.28;2.75;;;23.60;54.30;;;;;;5024863;28;20096;-39
2022/02/23 08:25:50;;;;;;;3.83;2.60;;;23.60;54.60;;;;;;5029906;28;20078;-43
2022/02/23 08:28:16;;;;;;;7.07;2.72;;;23.60;54.90;;;;;;5028436;28;20213;-40
2022/02/23 08:30:43;;;;;;;5.15;2.33;;;23.60;55.00;;;;;;5026816;28;20515;-35
2022/02/23 08:33:10;;;;;;;3.90;2.45;;;23.60;55.30;;;;;;5025530;28;20090;-35
2022/02/23 08:35:36;;;;;;;5.75;2.72;;;23.60;55.60;;;;;;5010075;28;20412;-42
2022/02/23 08:38:02;;;;;;;3.83;2.50;;;23.60;55.80;;;;;;5025206;28;20560;-37
2022/02/23 08:40:29;;;;;;;3.50;2.38;;;23.60;55.70;;;;;;5009112;28;20498;-33
2022/02/23 08:42:55;;;;;;;6.03;2.28;;;23.60;56.00;;;;;;5029716;28;20085;-34
2022/02/23 08:45:22;;;;;;;5.47;2.63;;;23.60;56.30;;;;;;5025898;28;20077;-38
2022/02/23 08:47:48;;;;;;;5.00;2.45;;;23.60;56.60;;;;;;5024411;28;20077;-34
2022/02/23 08:50:15;;;;;;;2.45;2.22;;;23.60;56.70;;;;;;5024470;28;20082;-35
2022/02/23 08:52:41;;;;;;;5.10;2.33;;;23.60;57.00;;;;;;5010515;28;20086;-41
2022/02/23 08:55:09;;;;;;;7.78;2.22;;;23.60;56.50;;;;;;5024971;28;20070;-35
2022/02/23 08:57:36;;;;;;;3.85;2.17;;;23.60;56.50;;;;;;5023833;28;20076;-37
2022/02/23 09:00:03;;;;;;;3.10;2.13;;;23.60;56.90;;;;;;5006031;28;20149;-36
2022/02/23 09:02:30;;;;;;;4.05;2.13;;;23.60;57.00;;;;;;5025148;28;20069;-35
2022/02/23 09:04:56;;;;;;;3.42;2.10;;;23.60;57.10;;;;;;5026363;28;20082;-35
2022/02/23 09:07:23;;;;;;;1.88;1.30;;;23.60;56.30;;;;;;5010148;28;20074;-40
2022/02/23 09:09:49;;;;;;;2.70;1.48;;;23.60;51.20;;;;;;5025722;28;20109;-36
2022/02/23 09:12:15;;;;;;;2.03;1.55;;;23.50;49.60;;;;;;5026401;28;20086;-37
2022/02/23 09:14:43;;;;;;;5.00;1.95;;;23.40;50.60;;;;;;5025068;28;20081;-33
2022/02/23 09:17:09;;;;;;;3.00;1.70;;;23.40;51.50;;;;;;5025368;28;20550;-36
2022/02/23 09:19:36;;;;;;;2.78;1.67;;;23.30;52.10;;;;;;5027090;28;20086;-37
2022/02/23 09:22:03;;;;;;;5.50;1.77;;;23.30;52.40;;;;;;5008592;28;20094;-34
2022/02/23 09:24:29;;;;;;;2.67;1.40;;;23.30;52.00;;;;;;5008104;28;20072;-37
2022/02/23 09:26:56;;;;;;;4.88;1.30;;;23.20;51.70;;;;;;5024268;28;20541;-38
2022/02/23 09:29:24;;;;;;;2.92;1.30;;;23.20;51.70;;;;;;5028826;28;20085;-38
2022/02/23 09:31:50;;;;;;;1.30;1.20;;;23.20;51.60;;;;;;5010068;28;20101;-34
2022/02/23 09:34:19;;;;;;;2.00;1.10;;;23.20;51.40;;;;;;4992406;28;20073;-35
2022/02/23 09:36:45;;;;;;;3.28;1.10;;;23.10;51.30;;;;;;5024498;28;20145;-35
2022/02/23 09:39:12;;;;;;;1.60;1.20;;;23.20;51.50;;;;;;5025785;28;20168;-36
2022/02/23 09:41:41;;;;;;;2.15;1.27;;;23.20;51.60;;;;;;5008109;28;20081;-38
2022/02/23 09:44:08;;;;;;;2.22;1.48;;;23.10;51.50;;;;;;5025901;28;20078;-36
2022/02/23 09:46:34;;;;;;;2.38;1.00;;;23.20;51.60;;;;;;5025303;28;20082;-40
2022/02/23 09:49:01;;;;;;;1.35;1.00;;;23.10;51.80;;;;;;5023755;28;20078;-46
2022/02/23 09:51:27;;;;;;;3.30;0.85;;;23.10;51.90;;;;;;5024322;28;20548;-39
2022/02/23 09:53:55;;;;;;;1.75;1.00;;;23.20;51.90;;;;;;5028598;28;20112;-44
2022/02/23 09:56:23;;;;;;;2.58;1.00;;;23.10;51.80;;;;;;5025388;28;20223;-35
2022/02/23 09:58:50;;;;;;;1.55;0.90;;;23.10;51.80;;;;;;4991593;28;20104;-42
2022/02/23 10:01:17;;;;;;;2.03;0.80;;;23.10;52.00;;;;;;5008430;28;20573;-38
2022/02/23 10:03:45;;;;;;;1.13;0.70;;;23.10;52.00;;;;;;5021723;28;20524;-37
2022/02/23 10:06:26;;;;;;;0.95;0.90;;;23.10;51.80;;;;;;5025107;28;20073;-38
2022/02/23 10:09:05;;;;;;;1.15;0.98;;;23.20;51.60;;;;;;5022055;28;20109;-35
2022/02/23 10:11:32;;;;;;;1.65;0.90;;;23.10;52.00;;;;;;5024703;28;20169;-35
2022/02/23 10:14:02;;;;;;;2.67;0.70;;;23.10;52.20;;;;;;5024615;28;20086;-37
2022/02/23 10:16:48;;;;;;;1.17;0.82;;;23.10;52.10;;;;;;5023538;28;20078;-38
2022/02/23 10:19:22;;;;;;;1.70;0.87;;;23.10;52.00;;;;;;5021269;28;20628;-36
2022/02/23 10:22:00;;;;;;;2.22;0.88;;;23.10;52.10;;;;;;5007819;28;20493;-44
2022/02/23 10:24:34;;;;;;;0.90;0.90;;;23.10;52.40;;;;;;5024261;28;20080;-35
2022/02/23 10:27:12;;;;;;;1.15;0.90;;;23.10;52.30;;;;;;5025786;28;20127;-38
2022/02/23 10:29:38;;;;;;;0.77;0.77;;;23.10;52.30;;;;;;5022793;28;20074;-39
2022/02/23 10:32:12;;;;;;;2.58;1.00;;;23.10;52.30;;;;;;5024372;28;20085;-39
2022/02/23 10:34:47;;;;;;;1.20;0.90;;;23.10;52.20;;;;;;5012244;28;20999;-35
2022/02/23 10:37:19;;;;;;;0.85;0.60;;;23.10;52.20;;;;;;5022898;28;20116;-41
2022/02/23 10:39:54;;;;;;;0.98;0.80;;;23.00;51.50;;;;;;5024594;28;20475;-39
2022/02/23 10:42:26;;;;;;;0.75;0.63;;;23.00;51.20;;;;;;5007701;28;20435;-38
2022/02/23 10:44:54;;;;;;;1.65;0.70;;;23.00;51.00;;;;;;5022660;28;20081;-36
2022/02/23 10:47:29;;;;;;;0.63;0.63;;;23.10;50.70;;;;;;5007377;28;20070;-37
2022/02/23 10:50:12;;;;;;;0.95;0.70;;;23.00;50.40;;;;;;5005229;28;20666;-35
2022/02/23 10:52:41;;;;;;;0.70;0.60;;;23.00;50.20;;;;;;5022842;28;20085;-37
2022/02/23 10:55:17;;;;;;;0.43;0.40;;;22.90;47.90;;;;;;5025859;28;20077;-36
2022/02/23 10:58:02;;;;;;;0.60;0.60;;;22.90;48.20;;;;;;5023220;28;20119;-34
2022/02/23 11:00:40;;;;;;;0.75;0.40;;;23.00;48.80;;;;;;5024135;28;20547;-36
2022/02/23 11:03:06;;;;;;;0.68;0.40;;;22.90;48.50;;;;;;5006908;28;20074;-43
2022/02/23 11:05:33;;;;;;;1.17;0.77;;;22.90;48.50;;;;;;5006889;28;20528;-39
2022/02/23 11:08:03;;;;;;;0.50;0.50;;;22.90;48.30;;;;;;5021657;28;20133;-35
2022/02/23 11:10:29;;;;;;;0.65;0.40;;;22.90;48.10;;;;;;5023231;28;20077;-38
2022/02/23 11:12:58;;;;;;;0.68;0.45;;;22.90;47.80;;;;;;5021068;28;20090;-44
2022/02/23 11:15:27;;;;;;;0.40;0.40;;;22.90;47.60;;;;;;5003739;28;20684;-36
2022/02/23 11:17:56;;;;;;;0.73;0.40;;;22.80;47.00;;;;;;5005742;28;20448;-43
2022/02/23 11:20:30;;;;;;;0.93;0.40;;;22.90;47.00;;;;;;5005146;28;20533;-36
2022/02/23 11:23:03;;;;;;;0.77;0.52;;;22.80;46.70;;;;;;5007379;28;20073;-34
2022/02/23 11:25:32;;;;;;;0.43;0.40;;;22.80;46.60;;;;;;5005851;28;20179;-38
2022/02/23 11:28:07;;;;;;;1.67;0.50;;;22.80;46.40;;;;;;5023881;28;20093;-36
2022/02/23 11:30:34;;;;;;;0.75;0.50;;;22.80;46.40;;;;;;5023562;28;20092;-38
2022/02/23 11:33:03;;;;;;;0.85;0.32;;;22.80;46.40;;;;;;5022541;28;20089;-36
2022/02/23 11:35:49;;;;;;;0.40;0.40;;;22.80;46.30;;;;;;5007035;28;20078;-38
2022/02/23 11:38:25;;;;;;;1.95;0.35;;;22.80;46.20;;;;;;5005060;28;20614;-37
2022/02/23 11:40:55;;;;;;;0.40;0.40;;;22.80;46.00;;;;;;4989699;28;20082;-35
2022/02/23 11:43:42;;;;;;;0.50;0.28;;;22.80;45.80;;;;;;5007826;28;20383;-34
2022/02/23 11:46:08;;;;;;;0.45;0.30;;;22.70;45.40;;;;;;5026528;28;20097;-39
2022/02/23 11:48:49;;;;;;;0.20;0.20;;;22.70;45.30;;;;;;5022091;28;20112;-34
2022/02/23 11:51:31;;;;;;;0.20;0.13;;;22.70;45.10;;;;;;5006480;28;20082;-39
2022/02/23 11:53:59;;;;;;;0.30;0.30;;;22.80;45.20;;;;;;5007424;28;20120;-36
2022/02/23 11:56:35;;;;;;;0.20;0.20;;;22.70;45.10;;;;;;5006312;28;20078;-39
2022/02/23 11:59:02;;;;;;;;;;;22.70;45.00;;;;;;4991533;28;20065;-35
2022/02/23 12:01:28;;;;;;;0.28;0.28;;;22.70;45.10;;;;;;5023967;28;19957;-38
2022/02/23 12:04:17;;;;;;;0.10;0.10;;;22.70;45.00;;;;;;5023687;28;20079;-40
2022/02/23 12:07:10;;;;;;;0.95;0.40;;;22.70;44.90;;;;;;5023856;28;20532;-46
2022/02/23 12:09:57;;;;;;;0.57;0.30;;;22.60;44.60;;;;;;5022731;28;20072;-35
2022/02/23 12:12:44;;;;;;;2.25;0.32;;;22.60;44.20;;;;;;5023588;28;20090;-35
2022/02/23 12:15:23;;;;;;;2.40;0.20;;;22.60;44.20;;;;;;5024813;28;20097;-34
2022/02/23 12:18:12;;;;;;;3.60;0.50;;;22.60;44.10;;;;;;5008617;28;20074;-40
2022/02/23 12:20:41;;;;;;;1.08;0.30;;;22.60;43.90;;;;;;5020289;28;20073;-35
2022/02/23 12:23:19;;;;;;;0.90;0.60;;;22.60;43.80;;;;;;5020480;28;20078;-35
2022/02/23 12:25:49;;;;;;;3.05;0.40;;;22.60;43.70;;;;;;5027407;28;20097;-35
2022/02/23 12:28:23;;;;;;;1.63;0.50;;;22.50;43.60;;;;;;5022937;28;20084;-35
2022/02/23 12:30:52;;;;;;;0.30;0.20;;;22.60;43.50;;;;;;5022122;28;20092;-34
2022/02/23 12:33:18;;;;;;;2.45;0.30;;;22.60;43.50;;;;;;5021782;28;20090;-36
2022/02/23 12:35:47;;;;;;;1.60;0.32;;;22.60;43.40;;;;;;5007624;28;20085;-36
2022/02/23 12:38:15;;;;;;;0.20;0.17;;;22.60;43.30;;;;;;5022141;28;20205;-35
2022/02/23 12:40:43;;;;;;;2.63;0.63;;;22.60;43.30;;;;;;5006123;28;20469;-33
2022/02/23 12:43:11;;;;;;;0.13;0.10;;;22.60;43.20;;;;;;5025588;28;20086;-33
2022/02/23 12:45:54;;;;;;;0.40;0.10;;;22.60;43.40;;;;;;5028965;28;20077;-35
2022/02/23 12:48:25;;;;;;;2.97;0.35;;;22.60;43.30;;;;;;5025890;28;20082;-39
2022/02/23 12:51:09;;;;;;;0.40;0.15;;;22.60;43.20;;;;;;5026144;28;20602;-40
2022/02/23 12:53:39;;;;;;;1.02;0.40;;;22.50;43.00;;;;;;5025590;28;20117;-35